Time;durP1;ratioP1;P1;durP2;ratioP2;P2;SDS_P1;SDS_P2;PMS_P1;PMS_P2;Temp;Humidity;BMP_temperature;BMP_pressure;BME280_temperature;BME280_humidity;BME280_pressure;Samples;Min_cycle;Max_cycle;Signal;HPM_P1;HPM_P2
2023/04/29 00:01:51;;;;;;;40.95;27.35;;;10.50;99.90;;;;;;4992469;28;20050;-66
2023/04/29 00:04:17;;;;;;;41.63;26.35;;;10.50;99.90;;;;;;4992948;28;20124;-65
2023/04/29 00:06:43;;;;;;;43.72;26.60;;;10.50;99.90;;;;;;5009705;28;20052;-65
2023/04/29 00:09:08;;;;;;;39.53;26.60;;;10.50;99.90;;;;;;4992886;28;20176;-65
2023/04/29 00:11:34;;;;;;;42.22;26.70;;;10.40;99.90;;;;;;5010214;28;20427;-65
2023/04/29 00:14:00;;;;;;;43.28;26.83;;;10.40;99.90;;;;;;4991134;28;20037;-65
2023/04/29 00:16:26;;;;;;;40.42;26.63;;;10.40;99.90;;;;;;5006906;28;20526;-65
2023/04/29 00:18:52;;;;;;;40.22;26.38;;;10.40;99.90;;;;;;4991031;28;20450;-65
2023/04/29 00:21:17;;;;;;;42.20;26.50;;;10.70;99.90;;;;;;4991596;28;20045;-65
2023/04/29 00:23:43;;;;;;;41.47;26.20;;;10.40;99.90;;;;;;4989700;28;20509;-65
2023/04/29 00:26:08;;;;;;;38.13;25.58;;;10.40;99.90;;;;;;5010278;28;20108;-69
2023/04/29 00:28:34;;;;;;;36.42;24.77;;;10.40;99.90;;;;;;5010261;28;20048;-65
2023/04/29 00:31:00;;;;;;;44.22;26.90;;;10.30;99.90;;;;;;4985612;28;20034;-65
2023/04/29 00:33:25;;;;;;;46.30;26.17;;;10.30;99.90;;;;;;5008363;28;20061;-65
2023/04/29 00:35:51;;;;;;;39.35;25.42;;;10.30;99.90;;;;;;4987965;28;20089;-66
2023/04/29 00:38:17;;;;;;;36.35;25.80;;;10.30;99.90;;;;;;4992928;28;20069;-67
2023/04/29 00:40:43;;;;;;;38.00;25.23;;;10.30;99.90;;;;;;4992735;28;20037;-64
2023/04/29 00:43:09;;;;;;;38.63;24.80;;;10.30;99.90;;;;;;5010139;28;20109;-66
2023/04/29 00:45:34;;;;;;;39.53;25.83;;;10.20;99.90;;;;;;5006644;28;20096;-66
2023/04/29 00:48:00;;;;;;;42.75;24.88;;;10.20;99.90;;;;;;5006808;28;20173;-67
2023/04/29 00:50:26;;;;;;;39.10;24.70;;;10.30;99.90;;;;;;5004733;28;20042;-66
2023/04/29 00:52:52;;;;;;;37.50;23.30;;;10.20;99.90;;;;;;4991505;28;20046;-66
2023/04/29 00:55:18;;;;;;;31.50;22.70;;;10.20;99.90;;;;;;4987219;28;20570;-68
2023/04/29 00:57:47;;;;;;;36.35;23.95;;;10.20;99.90;;;;;;5011246;28;20065;-68
2023/04/29 01:00:15;;;;;;;39.67;23.73;;;10.10;99.90;;;;;;4985470;28;20503;-65
2023/04/29 01:02:41;;;;;;;37.63;23.55;;;10.10;99.90;;;;;;5009964;28;20385;-65
2023/04/29 01:05:06;;;;;;;34.88;24.48;;;10.10;99.90;;;;;;5013966;28;20073;-65
2023/04/29 01:08:12;;;;;;;35.78;24.02;;;10.10;99.90;;;;;;5013498;28;20029;-66
2023/04/29 01:10:48;;;;;;;40.90;24.75;;;10.10;99.90;;;;;;5013766;28;20036;-64
2023/04/29 01:13:40;;;;;;;41.33;23.70;;;10.10;99.90;;;;;;5008956;28;20056;-65
2023/04/29 01:16:23;;;;;;;38.13;23.30;;;10.20;99.90;;;;;;4985541;28;20501;-68
2023/04/29 01:18:56;;;;;;;41.10;24.98;;;10.20;99.90;;;;;;5011859;28;20041;-65
2023/04/29 01:21:24;;;;;;;35.92;24.75;;;10.20;99.90;;;;;;4992957;28;20438;-69
2023/04/29 01:23:55;;;;;;;38.40;23.00;;;10.20;99.90;;;;;;4984961;28;20488;-67
2023/04/29 01:26:24;;;;;;;41.38;25.73;;;10.20;99.90;;;;;;4993555;28;20500;-68
2023/04/29 01:28:57;;;;;;;42.00;24.40;;;10.20;99.90;;;;;;4989740;28;20049;-64
2023/04/29 01:31:26;;;;;;;39.15;24.83;;;10.10;99.90;;;;;;4991384;28;20043;-68
2023/04/29 01:33:57;;;;;;;36.17;25.20;;;10.10;99.90;;;;;;4994736;28;20507;-65
2023/04/29 01:36:28;;;;;;;42.40;25.23;;;10.20;99.90;;;;;;4995141;28;20252;-65
2023/04/29 01:39:18;;;;;;;40.53;24.98;;;10.10;99.90;;;;;;4995503;28;20152;-65
2023/04/29 01:41:52;;;;;;;40.70;25.05;;;10.20;99.90;;;;;;4993708;28;20042;-65
2023/04/29 01:44:22;;;;;;;40.80;24.63;;;10.10;99.90;;;;;;4995020;28;20088;-65
2023/04/29 01:46:55;;;;;;;40.50;25.20;;;10.10;99.90;;;;;;5006571;28;20038;-66
2023/04/29 01:49:24;;;;;;;39.50;24.38;;;10.20;99.90;;;;;;5005781;28;20042;-68
2023/04/29 01:51:50;;;;;;;45.03;24.67;;;10.20;99.90;;;;;;5012646;28;20034;-66
2023/04/29 01:54:16;;;;;;;42.28;24.88;;;10.10;99.90;;;;;;5006250;28;20122;-68
2023/04/29 01:56:42;;;;;;;37.50;24.25;;;10.10;99.90;;;;;;4994660;28;20496;-68
2023/04/29 01:59:07;;;;;;;40.20;24.80;;;10.20;99.90;;;;;;5012750;28;20046;-68
2023/04/29 02:01:33;;;;;;;43.70;24.23;;;10.20;99.90;;;;;;5011719;28;20046;-65
2023/04/29 02:03:58;;;;;;;41.63;24.33;;;10.20;99.90;;;;;;5013063;28;20041;-64
2023/04/29 02:06:25;;;;;;;38.47;24.15;;;10.20;99.90;;;;;;4994602;28;20072;-65
2023/04/29 02:08:51;;;;;;;40.10;25.40;;;10.10;99.90;;;;;;5011790;28;20069;-64
2023/04/29 02:11:16;;;;;;;35.90;24.08;;;10.10;99.90;;;;;;5001078;28;20077;-64
2023/04/29 02:13:42;;;;;;;43.67;23.85;;;10.10;99.90;;;;;;5012025;28;20116;-66
2023/04/29 02:16:13;;;;;;;43.15;23.88;;;10.10;99.90;;;;;;4994850;28;20120;-67
2023/04/29 02:18:39;;;;;;;40.05;23.75;;;10.10;99.90;;;;;;5012230;28;20037;-67
2023/04/29 02:21:06;;;;;;;44.78;24.77;;;10.10;99.90;;;;;;4994557;28;20503;-67
2023/04/29 02:23:32;;;;;;;41.03;24.70;;;10.10;99.90;;;;;;4993438;28;20439;-67
2023/04/29 02:25:58;;;;;;;37.58;23.65;;;10.10;99.90;;;;;;5012065;28;20046;-67
2023/04/29 02:28:24;;;;;;;38.58;24.42;;;10.10;99.90;;;;;;4991173;28;20504;-67
2023/04/29 02:30:49;;;;;;;38.88;22.90;;;10.00;99.90;;;;;;4994273;28;20426;-67
2023/04/29 02:33:16;;;;;;;40.88;22.92;;;10.10;99.90;;;;;;4978368;28;20124;-67
2023/04/29 02:35:41;;;;;;;39.53;24.08;;;10.00;99.90;;;;;;4990041;28;20077;-65
2023/04/29 02:38:07;;;;;;;43.70;24.35;;;10.10;99.90;;;;;;5007541;28;20068;-66
2023/04/29 02:40:32;;;;;;;36.55;22.60;;;10.10;99.90;;;;;;4994166;28;20050;-64
2023/04/29 02:42:58;;;;;;;39.92;22.75;;;10.10;99.90;;;;;;5005662;28;20044;-64
2023/04/29 02:45:24;;;;;;;37.55;22.30;;;10.10;99.90;;;;;;5005290;28;20046;-65
2023/04/29 02:47:49;;;;;;;36.88;22.60;;;10.00;99.90;;;;;;4978876;28;20034;-65
2023/04/29 02:50:15;;;;;;;40.13;23.48;;;10.00;99.90;;;;;;4986989;28;20038;-67
2023/04/29 02:52:41;;;;;;;39.05;22.15;;;10.00;99.90;;;;;;5009349;28;20042;-65
2023/04/29 02:55:07;;;;;;;37.13;22.15;;;10.00;99.90;;;;;;5011452;28;20046;-64
2023/04/29 02:57:33;;;;;;;37.80;21.70;;;10.00;99.90;;;;;;4993760;28;20052;-69
2023/04/29 02:59:59;;;;;;;38.22;21.98;;;10.00;99.90;;;;;;5001982;28;20045;-64
2023/04/29 03:02:25;;;;;;;38.20;21.92;;;10.00;99.90;;;;;;5007015;28;20052;-64
2023/04/29 03:04:51;;;;;;;35.05;21.98;;;10.00;99.90;;;;;;4991225;28;20113;-65
2023/04/29 03:07:16;;;;;;;36.00;21.13;;;9.90;99.90;;;;;;5005626;28;20069;-65
2023/04/29 03:09:42;;;;;;;38.67;21.63;;;9.90;99.90;;;;;;4993411;28;20076;-65
2023/04/29 03:12:08;;;;;;;37.05;21.92;;;9.90;99.90;;;;;;5004221;28;20034;-66
2023/04/29 03:14:35;;;;;;;36.83;20.98;;;9.90;99.90;;;;;;5007929;28;20065;-68
2023/04/29 03:17:00;;;;;;;36.28;20.75;;;9.90;99.90;;;;;;4987642;28;20184;-64
2023/04/29 03:19:26;;;;;;;38.47;22.10;;;9.90;99.90;;;;;;5010622;28;20124;-66
2023/04/29 03:21:51;;;;;;;37.53;21.30;;;9.90;99.90;;;;;;5011198;28;20042;-65
2023/04/29 03:24:17;;;;;;;40.47;22.27;;;9.90;99.90;;;;;;5011119;28;20041;-65
2023/04/29 03:26:43;;;;;;;36.67;21.00;;;9.90;99.90;;;;;;5006758;28;20038;-65
2023/04/29 03:29:08;;;;;;;34.72;20.15;;;9.90;99.90;;;;;;5004021;28;20042;-65
2023/04/29 03:31:34;;;;;;;35.60;20.50;;;9.90;99.90;;;;;;5011320;28;20446;-64
2023/04/29 03:33:59;;;;;;;37.10;20.98;;;9.90;99.90;;;;;;4992298;28;20050;-64
2023/04/29 03:36:25;;;;;;;36.95;19.77;;;9.90;99.90;;;;;;4990984;28;20041;-64
2023/04/29 03:38:51;;;;;;;33.55;20.02;;;9.90;99.90;;;;;;5022347;22;21240;-66
2023/04/29 03:41:16;;;;;;;33.28;20.08;;;9.90;99.90;;;;;;5010051;28;20396;-66
2023/04/29 03:43:43;;;;;;;33.67;19.95;;;9.80;99.90;;;;;;5006888;28;20666;-66
2023/04/29 03:46:09;;;;;;;33.20;20.05;;;9.90;99.90;;;;;;5011167;28;20045;-66
2023/04/29 03:48:35;;;;;;;31.80;20.33;;;9.80;99.90;;;;;;4994414;28;20076;-66
2023/04/29 03:51:01;;;;;;;35.25;20.15;;;9.90;99.90;;;;;;5002059;28;20037;-66
2023/04/29 03:53:26;;;;;;;32.85;19.95;;;9.90;99.90;;;;;;5019759;28;20044;-64
2023/04/29 03:55:52;;;;;;;34.42;19.70;;;9.90;99.90;;;;;;5013852;28;20132;-64
2023/04/29 03:58:18;;;;;;;30.40;19.48;;;9.80;99.90;;;;;;4993541;28;20046;-64
2023/04/29 04:00:43;;;;;;;31.60;19.10;;;9.80;99.90;;;;;;5010165;28;20034;-64
2023/04/29 04:03:09;;;;;;;30.13;18.90;;;9.80;99.90;;;;;;4992434;28;20081;-64
2023/04/29 04:05:35;;;;;;;34.60;19.60;;;9.80;99.90;;;;;;5010080;28;20413;-64
2023/04/29 04:08:00;;;;;;;31.55;19.77;;;9.80;99.90;;;;;;5005953;28;20053;-65
2023/04/29 04:10:27;;;;;;;34.75;19.83;;;9.80;99.90;;;;;;5010644;28;20038;-65
2023/04/29 04:12:52;;;;;;;33.47;19.08;;;9.80;99.90;;;;;;4992736;28;20492;-64
2023/04/29 04:15:18;;;;;;;32.10;18.55;;;9.80;99.90;;;;;;5009569;28;20045;-64
2023/04/29 04:17:44;;;;;;;31.92;19.23;;;9.80;99.90;;;;;;5010164;28;20042;-65
2023/04/29 04:20:10;;;;;;;38.42;19.85;;;9.70;99.90;;;;;;5010070;28;20045;-64
2023/04/29 04:22:36;;;;;;;30.60;19.17;;;9.80;99.90;;;;;;5010288;28;20048;-64
2023/04/29 04:25:03;;;;;;;35.70;20.85;;;9.70;99.90;;;;;;4997251;28;20515;-64
2023/04/29 04:27:29;;;;;;;31.45;19.05;;;9.70;99.90;;;;;;4996408;28;20045;-65
2023/04/29 04:29:55;;;;;;;35.45;20.30;;;9.70;99.90;;;;;;5010074;28;20037;-64
2023/04/29 04:32:22;;;;;;;34.15;21.50;;;9.70;99.90;;;;;;4987989;28;20088;-65
2023/04/29 04:34:48;;;;;;;29.25;18.95;;;9.70;99.90;;;;;;4991546;28;20060;-65
2023/04/29 04:37:14;;;;;;;36.45;20.15;;;9.70;99.90;;;;;;4985268;28;20078;-65
2023/04/29 04:39:39;;;;;;;32.47;19.25;;;9.70;99.90;;;;;;4990291;28;20085;-65
2023/04/29 04:42:05;;;;;;;33.05;18.98;;;9.70;99.90;;;;;;5011617;28;20045;-65
2023/04/29 04:44:32;;;;;;;33.92;18.75;;;9.70;99.90;;;;;;5013106;28;20408;-65
2023/04/29 04:46:59;;;;;;;31.00;18.67;;;9.70;99.90;;;;;;5002928;28;20041;-64
2023/04/29 04:49:26;;;;;;;32.58;19.05;;;9.70;99.90;;;;;;5003136;28;20489;-65
2023/04/29 04:51:52;;;;;;;30.88;19.30;;;9.70;99.90;;;;;;4984918;28;20064;-65
2023/04/29 04:54:18;;;;;;;33.13;19.52;;;9.70;99.90;;;;;;5012100;28;20050;-65
2023/04/29 04:56:43;;;;;;;36.15;18.77;;;9.70;99.90;;;;;;5017979;28;20033;-65
2023/04/29 04:59:09;;;;;;;32.42;19.25;;;9.70;99.90;;;;;;4992432;28;20046;-65
2023/04/29 05:01:35;;;;;;;32.95;19.23;;;9.70;99.90;;;;;;4996523;28;20038;-65
2023/04/29 05:04:01;;;;;;;30.83;18.08;;;9.70;99.90;;;;;;4996458;28;20103;-65
2023/04/29 05:06:27;;;;;;;34.53;17.65;;;9.70;99.90;;;;;;4995527;28;20064;-64
2023/04/29 05:08:53;;;;;;;29.40;17.90;;;9.70;99.90;;;;;;4989217;28;20034;-65
2023/04/29 05:11:20;;;;;;;31.98;17.45;;;9.70;99.90;;;;;;5011291;28;20038;-64
2023/04/29 05:13:46;;;;;;;27.45;16.42;;;9.70;99.90;;;;;;4995799;28;20042;-65
2023/04/29 05:16:11;;;;;;;33.13;17.73;;;9.70;99.90;;;;;;4994931;28;20123;-64
2023/04/29 05:18:37;;;;;;;31.40;16.45;;;9.70;99.90;;;;;;4993409;28;20076;-64
2023/04/29 05:21:03;;;;;;;33.95;16.73;;;9.70;99.90;;;;;;5021106;28;20639;-65
2023/04/29 05:23:28;;;;;;;26.85;16.77;;;9.80;99.90;;;;;;5015495;28;20507;-65
2023/04/29 05:25:54;;;;;;;27.80;17.85;;;9.80;99.90;;;;;;4994625;28;20495;-64
2023/04/29 05:28:20;;;;;;;28.40;16.85;;;9.80;99.90;;;;;;5013660;28;20092;-65
2023/04/29 05:30:46;;;;;;;30.70;16.63;;;9.80;99.90;;;;;;4997224;28;20048;-64
2023/04/29 05:33:12;;;;;;;32.35;16.80;;;9.80;99.90;;;;;;5020135;28;20044;-64
2023/04/29 05:35:37;;;;;;;31.17;17.15;;;9.80;99.90;;;;;;4998338;28;20426;-65
2023/04/29 05:38:03;;;;;;;33.13;16.75;;;9.80;99.90;;;;;;5012741;28;20063;-64
2023/04/29 05:40:29;;;;;;;28.58;16.77;;;9.80;99.90;;;;;;4997179;28;20448;-64
2023/04/29 05:42:54;;;;;;;30.45;16.30;;;9.80;99.90;;;;;;5013126;28;20119;-64
2023/04/29 05:45:20;;;;;;;28.88;16.23;;;9.80;99.90;;;;;;4995177;28;20046;-65
2023/04/29 05:47:45;;;;;;;30.80;17.05;;;9.80;99.90;;;;;;4998062;28;20053;-65
2023/04/29 05:50:11;;;;;;;33.17;16.60;;;9.90;99.90;;;;;;5016375;28;20030;-65
2023/04/29 05:52:37;;;;;;;25.70;15.23;;;9.90;99.90;;;;;;5013762;28;20076;-64
2023/04/29 05:55:03;;;;;;;27.08;15.07;;;9.90;99.90;;;;;;5003956;28;20412;-64
2023/04/29 05:57:29;;;;;;;28.65;15.73;;;9.80;99.90;;;;;;4987224;28;20042;-65
2023/04/29 05:59:58;;;;;;;26.02;15.27;;;9.90;99.90;;;;;;5012729;28;20037;-65
2023/04/29 06:02:24;;;;;;;25.27;15.20;;;9.90;99.90;;;;;;5000272;28;20080;-64
2023/04/29 06:04:50;;;;;;;26.67;14.55;;;9.90;99.90;;;;;;5012517;28;20041;-64
2023/04/29 06:07:17;;;;;;;27.20;13.90;;;9.90;99.90;;;;;;5010229;28;20056;-64
2023/04/29 06:09:43;;;;;;;30.67;14.98;;;9.90;99.90;;;;;;5020411;28;20179;-65
2023/04/29 06:12:09;;;;;;;24.23;13.80;;;9.90;99.90;;;;;;5012215;28;20041;-64
2023/04/29 06:14:35;;;;;;;24.40;13.77;;;9.90;99.90;;;;;;5011831;28;20060;-65
2023/04/29 06:17:00;;;;;;;23.35;13.07;;;9.90;99.90;;;;;;4987341;28;20049;-64
2023/04/29 06:19:26;;;;;;;29.90;14.40;;;10.00;99.90;;;;;;4988600;28;20046;-65
2023/04/29 06:21:52;;;;;;;24.65;13.20;;;10.00;99.90;;;;;;5010489;28;20046;-64
2023/04/29 06:24:18;;;;;;;20.67;13.43;;;10.00;99.90;;;;;;5010869;28;20088;-64
2023/04/29 06:26:43;;;;;;;18.90;11.48;;;10.10;99.90;;;;;;5010760;28;20481;-65
2023/04/29 06:29:09;;;;;;;26.80;12.10;;;10.00;99.90;;;;;;4995976;28;20088;-64
2023/04/29 06:31:34;;;;;;;21.45;12.45;;;10.10;99.90;;;;;;5006792;28;20026;-65
2023/04/29 06:34:00;;;;;;;25.05;12.77;;;10.10;99.90;;;;;;5015159;28;20488;-65
2023/04/29 06:36:26;;;;;;;21.67;11.70;;;10.20;99.90;;;;;;5008284;28;20056;-64
2023/04/29 06:38:51;;;;;;;22.80;12.02;;;10.20;99.90;;;;;;5010650;28;20050;-65
2023/04/29 06:41:17;;;;;;;21.98;11.98;;;10.20;99.90;;;;;;5011033;28;20425;-64
2023/04/29 06:43:43;;;;;;;24.00;11.50;;;10.20;99.90;;;;;;4996499;28;20037;-64
2023/04/29 06:46:09;;;;;;;22.48;11.88;;;10.20;99.90;;;;;;4992509;28;20456;-64
2023/04/29 06:48:35;;;;;;;18.23;10.75;;;10.30;99.90;;;;;;5016227;28;20117;-64
2023/04/29 06:51:00;;;;;;;21.92;11.45;;;10.30;99.90;;;;;;4994228;28;20453;-64
2023/04/29 06:53:26;;;;;;;20.23;11.88;;;10.40;99.90;;;;;;5010692;28;20037;-65
2023/04/29 06:55:52;;;;;;;17.20;11.07;;;10.40;99.90;;;;;;5016036;28;20112;-64
2023/04/29 06:58:18;;;;;;;20.23;11.40;;;10.50;99.90;;;;;;5010948;28;20038;-64
2023/04/29 07:00:45;;;;;;;19.23;10.98;;;10.50;99.90;;;;;;4990032;28;20403;-64
2023/04/29 07:03:11;;;;;;;20.40;11.70;;;10.50;99.90;;;;;;4989744;28;20424;-64
2023/04/29 07:05:40;;;;;;;18.20;11.18;;;10.60;99.90;;;;;;4993472;28;20052;-64
2023/04/29 07:08:07;;;;;;;24.08;11.82;;;10.60;99.90;;;;;;5010924;28;20037;-64
2023/04/29 07:10:33;;;;;;;18.15;10.82;;;10.70;99.90;;;;;;4992378;28;20046;-64
2023/04/29 07:12:59;;;;;;;21.10;10.85;;;10.80;99.90;;;;;;4988021;28;20511;-64
2023/04/29 07:15:26;;;;;;;17.25;10.65;;;10.80;99.90;;;;;;5006518;28;20042;-64
2023/04/29 07:17:52;;;;;;;20.17;11.27;;;10.80;99.90;;;;;;5011193;28;20412;-64
2023/04/29 07:20:18;;;;;;;16.63;10.43;;;10.80;99.90;;;;;;4988679;28;20135;-65
2023/04/29 07:22:43;;;;;;;17.48;10.68;;;10.80;99.90;;;;;;5009050;28;20069;-64
2023/04/29 07:25:09;;;;;;;18.38;10.18;;;10.80;99.90;;;;;;5005289;28;20481;-64
2023/04/29 07:27:36;;;;;;;17.98;10.60;;;10.80;99.90;;;;;;5007994;28;20039;-64
2023/04/29 07:30:06;;;;;;;17.75;10.60;;;10.80;99.90;;;;;;5018014;28;20045;-64
2023/04/29 07:32:31;;;;;;;19.13;10.18;;;10.70;99.90;;;;;;4984860;28;20044;-64
2023/04/29 07:34:58;;;;;;;18.27;10.52;;;10.70;99.90;;;;;;4993388;28;20049;-64
2023/04/29 07:37:24;;;;;;;13.68;9.15;;;10.70;99.90;;;;;;4992441;28;20056;-64
2023/04/29 07:39:49;;;;;;;19.02;10.40;;;10.70;99.90;;;;;;5011082;28;20041;-63
2023/04/29 07:42:15;;;;;;;15.05;9.65;;;10.70;99.90;;;;;;4990711;28;20042;-64
2023/04/29 07:44:41;;;;;;;16.48;9.75;;;10.70;99.90;;;;;;5008225;28;20121;-64
2023/04/29 07:47:06;;;;;;;17.70;9.75;;;10.70;99.90;;;;;;5008438;28;20472;-64
2023/04/29 07:49:32;;;;;;;17.52;9.98;;;10.70;99.90;;;;;;5011544;28;20172;-64
2023/04/29 07:51:57;;;;;;;15.68;9.35;;;10.70;99.90;;;;;;4990131;28;20041;-64
2023/04/29 07:54:23;;;;;;;17.10;10.02;;;10.70;99.90;;;;;;4998524;28;20056;-64
2023/04/29 07:56:49;;;;;;;15.27;9.40;;;10.70;99.90;;;;;;5011106;28;20101;-64
2023/04/29 07:59:15;;;;;;;16.58;9.60;;;10.70;99.90;;;;;;5006291;28;20030;-64
2023/04/29 08:01:41;;;;;;;16.40;9.73;;;10.70;99.90;;;;;;5005550;28;20034;-64
2023/04/29 08:04:07;;;;;;;16.05;9.70;;;10.70;99.90;;;;;;5011360;28;20048;-64
2023/04/29 08:06:33;;;;;;;16.60;9.40;;;10.70;99.90;;;;;;4998936;28;20054;-64
2023/04/29 08:08:58;;;;;;;18.95;9.60;;;10.80;99.90;;;;;;5006713;28;20041;-64
2023/04/29 08:11:25;;;;;;;16.92;9.95;;;10.80;99.90;;;;;;5008152;28;20113;-64
2023/04/29 08:13:51;;;;;;;18.67;10.02;;;10.80;99.90;;;;;;5005030;28;20409;-64
2023/04/29 08:16:17;;;;;;;17.98;9.93;;;10.80;99.90;;;;;;5003930;28;20033;-64
2023/04/29 08:18:42;;;;;;;18.70;9.63;;;10.90;99.90;;;;;;5002787;28;20325;-64
2023/04/29 08:21:10;;;;;;;16.08;9.95;;;10.90;99.90;;;;;;4993179;28;20045;-64
2023/04/29 08:23:36;;;;;;;16.02;9.40;;;10.90;99.90;;;;;;4999364;28;20432;-64
2023/04/29 08:26:02;;;;;;;17.17;9.45;;;11.00;99.90;;;;;;4992745;28;20057;-65
2023/04/29 08:28:28;;;;;;;15.60;8.93;;;11.10;99.90;;;;;;5009584;28;20401;-65
2023/04/29 08:30:54;;;;;;;13.93;8.95;;;11.30;99.90;;;;;;4991835;28;20365;-63
2023/04/29 08:33:21;;;;;;;18.13;9.05;;;11.50;99.90;;;;;;5005042;28;20484;-63
2023/04/29 08:35:46;;;;;;;17.80;9.40;;;11.80;99.90;;;;;;5004260;28;20051;-64
2023/04/29 08:38:12;;;;;;;16.13;8.73;;;12.10;99.90;;;;;;4995163;28;20050;-63
2023/04/29 08:40:44;;;;;;;15.30;9.38;;;12.40;99.90;;;;;;5000774;28;20120;-63
2023/04/29 08:43:11;;;;;;;;;;;12.70;99.90;;;;;;5001670;28;20069;-64
2023/04/29 08:45:36;;;;;;;14.43;8.70;;;13.00;99.90;;;;;;4988610;28;20016;-64
2023/04/29 08:48:02;;;;;;;13.82;9.00;;;13.20;99.90;;;;;;5008490;28;20647;-64
2023/04/29 08:50:30;;;;;;;14.13;9.15;;;13.40;99.90;;;;;;4989824;28;20053;-64
2023/04/29 08:52:56;;;;;;;13.43;8.73;;;13.60;99.90;;;;;;5004295;28;20053;-64
2023/04/29 08:55:22;;;;;;;16.00;9.57;;;13.80;99.90;;;;;;5018262;28;20064;-64
2023/04/29 08:57:49;;;;;;;14.85;8.50;;;13.90;99.90;;;;;;4998358;28;20050;-64
2023/04/29 09:00:15;;;;;;;11.70;7.95;;;14.10;99.90;;;;;;4995208;28;20041;-64
2023/04/29 09:02:48;;;;;;;12.63;7.88;;;14.30;99.90;;;;;;5009525;28;20543;-64
2023/04/29 09:05:14;;;;;;;11.63;7.93;;;14.60;99.90;;;;;;5009488;28;20126;-64
2023/04/29 09:07:41;;;;;;;12.05;7.88;;;14.80;99.90;;;;;;4992150;28;20130;-65
2023/04/29 09:10:07;;;;;;;15.63;8.02;;;15.10;99.90;;;;;;4995131;28;20041;-63
2023/04/29 09:12:33;;;;;;;12.73;7.40;;;15.30;99.90;;;;;;5012770;28;20084;-64
2023/04/29 09:14:58;;;;;;;10.70;7.35;;;15.30;99.90;;;;;;4991543;28;20566;-65
2023/04/29 09:17:44;;;;;;;10.30;7.00;;;15.10;99.90;;;;;;4994825;28;20600;-64
2023/04/29 09:20:30;;;;;;;11.95;6.95;;;14.90;99.90;;;;;;5013453;28;20164;-64
2023/04/29 09:22:58;;;;;;;13.48;7.38;;;15.00;99.90;;;;;;4983962;28;20085;-64
2023/04/29 09:25:25;;;;;;;13.68;7.57;;;15.10;99.90;;;;;;4987394;28;20492;-64
2023/04/29 09:27:50;;;;;;;10.77;6.70;;;15.40;99.90;;;;;;5006770;28;20117;-64
2023/04/29 09:30:16;;;;;;;10.48;7.28;;;15.80;99.90;;;;;;5009536;28;20579;-64
2023/04/29 09:32:43;;;;;;;12.55;7.15;;;16.10;99.90;;;;;;5009741;28;20065;-65
2023/04/29 09:35:25;;;;;;;9.75;7.10;;;16.10;99.90;;;;;;5014068;28;20038;-64
2023/04/29 09:37:54;;;;;;;12.95;6.80;;;16.20;99.90;;;;;;5012057;22;21048;-64
2023/04/29 09:40:30;;;;;;;10.38;5.47;;;16.40;99.90;;;;;;5025938;28;20048;-64
2023/04/29 09:42:57;;;;;;;8.57;6.25;;;16.60;99.90;;;;;;5009683;28;20081;-67
2023/04/29 09:45:41;;;;;;;8.93;6.43;;;16.80;99.90;;;;;;5003490;28;20134;-64
2023/04/29 09:48:08;;;;;;;9.60;6.22;;;16.90;99.90;;;;;;4998182;28;20041;-64
2023/04/29 09:50:38;;;;;;;10.10;6.22;;;16.80;99.90;;;;;;5016450;28;20088;-65
2023/04/29 09:53:08;;;;;;;11.13;6.55;;;16.50;99.90;;;;;;5011380;28;20121;-64
2023/04/29 09:55:35;;;;;;;10.07;6.30;;;16.30;99.90;;;;;;5023134;28;20037;-64
2023/04/29 09:58:01;;;;;;;9.88;6.20;;;16.20;99.90;;;;;;4996866;28;20048;-64
2023/04/29 10:00:32;;;;;;;7.60;5.80;;;16.20;99.90;;;;;;5013427;28;20496;-64
2023/04/29 10:03:00;;;;;;;10.13;5.63;;;16.20;99.90;;;;;;5006976;28;20050;-64
2023/04/29 10:05:28;;;;;;;10.32;5.80;;;16.20;99.90;;;;;;5013081;28;20061;-64
2023/04/29 10:07:55;;;;;;;9.63;5.90;;;16.10;99.90;;;;;;5011910;28;20048;-66
2023/04/29 10:10:23;;;;;;;7.70;5.25;;;16.00;99.90;;;;;;5011525;28;20038;-64
2023/04/29 10:12:52;;;;;;;9.00;5.60;;;15.90;99.90;;;;;;5019023;28;20026;-65
2023/04/29 10:15:48;;;;;;;9.13;6.13;;;15.80;99.90;;;;;;5015396;28;20038;-64
2023/04/29 10:18:25;;;;;;;11.45;5.82;;;15.70;99.90;;;;;;4984220;28;20053;-64
2023/04/29 10:20:52;;;;;;;9.90;5.55;;;15.90;99.90;;;;;;5015311;28;20041;-64
2023/04/29 10:23:20;;;;;;;9.80;5.45;;;16.20;99.90;;;;;;5012827;28;20436;-64
2023/04/29 10:25:47;;;;;;;11.23;5.80;;;16.50;99.90;;;;;;5006845;28;20034;-64
2023/04/29 10:28:15;;;;;;;8.13;5.53;;;16.80;99.90;;;;;;4995125;28;20054;-64
2023/04/29 10:30:45;;;;;;;8.63;5.07;;;17.10;99.90;;;;;;4987620;28;20491;-68
2023/04/29 10:33:15;;;;;;;14.02;5.85;;;17.20;99.90;;;;;;4994774;28;20054;-64
2023/04/29 10:35:43;;;;;;;12.52;5.82;;;17.40;99.90;;;;;;5010593;28;20046;-63
2023/04/29 10:38:21;;;;;;;7.15;5.28;;;17.30;99.90;;;;;;5021842;28;20041;-68
2023/04/29 10:40:48;;;;;;;9.95;5.70;;;17.10;99.90;;;;;;5008751;28;20289;-64
2023/04/29 10:43:14;;;;;;;8.25;5.45;;;16.90;99.90;;;;;;4994412;28;20407;-66
2023/04/29 10:45:40;;;;;;;8.45;5.07;;;17.00;99.90;;;;;;5008139;28;20445;-64
2023/04/29 10:48:12;;;;;;;9.63;5.43;;;17.10;99.90;;;;;;5018493;28;20124;-67
2023/04/29 10:50:47;;;;;;;8.35;4.82;;;17.40;99.90;;;;;;5010969;28;20522;-64
2023/04/29 10:53:21;;;;;;;10.02;5.35;;;17.70;99.90;;;;;;4993183;28;20127;-64
2023/04/29 10:55:51;;;;;;;9.27;6.00;;;17.90;99.90;;;;;;5000432;28;20038;-64
2023/04/29 10:58:39;;;;;;;10.13;5.10;;;17.70;99.90;;;;;;5008472;28;20042;-64
2023/04/29 11:01:09;;;;;;;8.25;5.50;;;17.60;99.90;;;;;;5006774;28;20046;-64
2023/04/29 11:03:54;;;;;;;8.63;4.60;;;17.60;99.90;;;;;;4993855;28;20093;-64
2023/04/29 11:06:24;;;;;;;9.48;5.15;;;17.80;99.90;;;;;;4998717;28;20037;-64
2023/04/29 11:09:07;;;;;;;8.15;5.20;;;18.00;99.90;;;;;;4975782;28;20050;-64
2023/04/29 11:11:48;;;;;;;12.15;6.00;;;18.10;99.60;;;;;;4980693;28;20045;-63
2023/04/29 11:14:19;;;;;;;11.65;6.63;;;18.40;99.50;;;;;;4980968;28;20042;-64
2023/04/29 11:16:51;;;;;;;9.93;5.65;;;18.50;99.80;;;;;;4986984;28;20120;-63
2023/04/29 11:19:17;;;;;;;8.02;5.15;;;18.60;98.70;;;;;;4974106;28;20489;-64
2023/04/29 11:21:45;;;;;;;10.27;4.90;;;18.80;98.90;;;;;;4987854;28;20077;-65
2023/04/29 11:24:14;;;;;;;6.30;4.30;;;18.90;97.90;;;;;;4993498;28;20069;-65
2023/04/29 11:26:40;;;;;;;8.00;4.47;;;19.10;97.70;;;;;;4997882;28;20463;-64
2023/04/29 11:29:09;;;;;;;7.10;4.60;;;19.20;97.30;;;;;;5008194;28;20496;-64
2023/04/29 11:31:35;;;;;;;9.43;4.35;;;19.20;95.90;;;;;;5010990;28;20127;-66
2023/04/29 11:34:03;;;;;;;8.40;4.38;;;19.20;95.60;;;;;;5011921;28;20398;-67
2023/04/29 11:36:31;;;;;;;8.07;4.45;;;19.30;96.00;;;;;;5015521;28;20044;-67
2023/04/29 11:38:59;;;;;;;8.93;4.53;;;19.40;95.90;;;;;;5010311;28;20034;-64
2023/04/29 11:41:25;;;;;;;6.35;3.80;;;19.60;95.20;;;;;;5013616;28;20037;-64
2023/04/29 11:43:56;;;;;;;7.68;3.83;;;19.50;94.70;;;;;;5010998;28;20100;-64
2023/04/29 11:46:22;;;;;;;8.25;4.40;;;19.60;94.40;;;;;;5015503;28;20116;-64
2023/04/29 11:48:48;;;;;;;7.30;3.83;;;19.70;94.20;;;;;;5010503;28;20128;-67
2023/04/29 11:51:16;;;;;;;7.75;3.85;;;19.80;94.20;;;;;;5013295;28;20041;-64
2023/04/29 11:53:42;;;;;;;5.80;3.58;;;19.90;94.30;;;;;;5010576;28;20526;-66
2023/04/29 11:56:09;;;;;;;5.82;3.50;;;19.90;93.50;;;;;;5008508;28;20042;-66
2023/04/29 11:58:35;;;;;;;7.13;3.70;;;20.10;93.10;;;;;;4986904;28;20077;-65
2023/04/29 12:01:03;;;;;;;6.68;3.95;;;20.10;92.60;;;;;;5010679;28;20041;-64
2023/04/29 12:03:30;;;;;;;5.95;3.60;;;20.30;92.90;;;;;;5006608;28;20439;-64
2023/04/29 12:05:56;;;;;;;8.55;3.85;;;20.20;92.00;;;;;;4992670;28;20045;-66
2023/04/29 12:08:24;;;;;;;6.10;3.97;;;20.20;91.40;;;;;;5006025;28;20049;-68
2023/04/29 12:10:51;;;;;;;6.05;3.92;;;20.20;91.40;;;;;;4992695;28;20045;-63
2023/04/29 12:13:17;;;;;;;7.13;3.58;;;20.30;91.40;;;;;;5011165;28;20041;-63
2023/04/29 12:15:45;;;;;;;5.55;3.60;;;20.30;91.00;;;;;;5001353;28;20385;-64
2023/04/29 12:18:11;;;;;;;7.05;3.80;;;20.40;91.30;;;;;;4992500;28;20053;-65
2023/04/29 12:20:38;;;;;;;8.70;3.63;;;20.40;90.60;;;;;;5001635;28;20077;-64
2023/04/29 12:23:18;;;;;;;8.55;3.88;;;20.30;90.30;;;;;;5004532;28;20412;-63
2023/04/29 12:25:52;;;;;;;6.50;4.00;;;20.30;89.50;;;;;;4991549;28;20108;-63
2023/04/29 12:28:19;;;;;;;8.73;3.60;;;20.40;89.80;;;;;;5003936;28;20042;-66
2023/04/29 12:30:50;;;;;;;5.50;3.58;;;20.40;90.20;;;;;;5003858;28;20052;-67
2023/04/29 12:33:23;;;;;;;8.25;3.88;;;20.30;90.00;;;;;;5004669;28;20042;-63
2023/04/29 12:35:56;;;;;;;6.07;3.80;;;20.20;90.50;;;;;;4989382;28;20395;-67
2023/04/29 12:38:27;;;;;;;18.98;4.68;;;20.30;90.50;;;;;;5002845;28;20048;-63